EJU32GK LFMN-LPPT
Flight info
| Callsign | EJU32GK |
|---|---|
| Flight time | N/A |
| Altitude | 34000 |
| Route | EPOLO DCT SOFFY DCT NILDU/N0436F350 DCT NENDA DCT BCN DCT ANTON DCT XIKEN DCT OSLAP DCT SALAS DCT RAMON DCT NEXAS DCT DISVU DCT ADUXO DCT CJN DCT PALIO/N0439F370 DCT AKOKI DCT GOTOR DCT TLD DCT NATPA DCT MELON DCT CCS DCT ELVAR DCT UPULO |
| Aircraft | A21N/M-SDE2E3FGHIRWXY/LB1 |
Departure
| Time | N/A |
|---|---|
| Airport | Nice-Côte d'Azur Airport (LFMN) |
Arrival
| Time | 2026-04-27 16:55 |
|---|---|
| Airport | Lisbon Humberto Delgado Airport (LPPT) |
| Time | Latitude | Longitude | Altitude | Speed | Heading |
|---|---|---|---|---|---|
| 2026-04-27 16:37 | 38.96624 | -7.85531 | 24530 ft | 360 kts | 243° |
| 2026-04-27 16:37 | 38.95537 | -7.88374 | 24476 ft | 347 kts | 242° |
| 2026-04-27 16:37 | 38.94486 | -7.91120 | 24227 ft | 339 kts | 242° |
| 2026-04-27 16:37 | 38.93452 | -7.93817 | 23910 ft | 333 kts | 242° |
| 2026-04-27 16:38 | 38.92433 | -7.96473 | 23563 ft | 330 kts | 242° |
| 2026-04-27 16:38 | 38.91422 | -7.99105 | 23146 ft | 327 kts | 242° |
| 2026-04-27 16:38 | 38.90335 | -8.01647 | 22662 ft | 324 kts | 234° |
| 2026-04-27 16:38 | 38.88987 | -8.03966 | 21848 ft | 332 kts | 230° |
| 2026-04-27 16:39 | 38.87477 | -8.06309 | 21056 ft | 340 kts | 229° |
| 2026-04-27 16:39 | 38.86045 | -8.08697 | 20586 ft | 344 kts | 234° |
| 2026-04-27 16:39 | 38.84683 | -8.11296 | 20349 ft | 355 kts | 235° |
| 2026-04-27 16:39 | 38.83326 | -8.13965 | 20110 ft | 358 kts | 236° |
| 2026-04-27 16:40 | 38.81980 | -8.16651 | 19864 ft | 358 kts | 236° |
| 2026-04-27 16:40 | 38.80639 | -8.19341 | 19621 ft | 357 kts | 236° |
| 2026-04-27 16:40 | 38.79306 | -8.22025 | 19379 ft | 356 kts | 236° |
| 2026-04-27 16:40 | 38.77972 | -8.24709 | 19153 ft | 362 kts | 236° |
| 2026-04-27 16:41 | 38.76604 | -8.27463 | 18798 ft | 369 kts | 236° |
| 2026-04-27 16:41 | 38.75222 | -8.30245 | 18345 ft | 369 kts | 236° |
| 2026-04-27 16:41 | 38.73847 | -8.33012 | 17820 ft | 366 kts | 236° |
| 2026-04-27 16:41 | 38.72501 | -8.35718 | 17362 ft | 362 kts | 236° |
| 2026-04-27 16:42 | 38.71151 | -8.38431 | 16907 ft | 360 kts | 236° |
| 2026-04-27 16:42 | 38.69807 | -8.41128 | 16435 ft | 357 kts | 236° |
| 2026-04-27 16:42 | 38.68480 | -8.43789 | 15980 ft | 354 kts | 236° |
| 2026-04-27 16:42 | 38.67154 | -8.46445 | 15522 ft | 352 kts | 236° |
| 2026-04-27 16:43 | 38.65837 | -8.49082 | 15068 ft | 351 kts | 236° |
| 2026-04-27 16:43 | 38.64520 | -8.51716 | 14609 ft | 348 kts | 237° |
| 2026-04-27 16:43 | 38.63218 | -8.54318 | 14182 ft | 346 kts | 237° |
| 2026-04-27 16:43 | 38.61933 | -8.56924 | 13686 ft | 346 kts | 240° |
| 2026-04-27 16:44 | 38.60977 | -8.59701 | 13101 ft | 345 kts | 252° |
| 2026-04-27 16:44 | 38.60415 | -8.62675 | 12535 ft | 343 kts | 258° |
| 2026-04-27 16:44 | 38.59994 | -8.65658 | 12005 ft | 341 kts | 260° |
| 2026-04-27 16:44 | 38.59612 | -8.68642 | 11459 ft | 339 kts | 261° |
| 2026-04-27 16:45 | 38.59219 | -8.71813 | 10948 ft | 335 kts | 262° |
| 2026-04-27 16:45 | 38.58885 | -8.74545 | 10639 ft | 336 kts | 261° |
| 2026-04-27 16:45 | 38.58520 | -8.77547 | 10112 ft | 344 kts | 261° |
| 2026-04-27 16:45 | 38.58153 | -8.80557 | 9621 ft | 341 kts | 262° |
| 2026-04-27 16:46 | 38.57793 | -8.83509 | 9171 ft | 336 kts | 261° |
| 2026-04-27 16:46 | 38.57434 | -8.86450 | 8749 ft | 334 kts | 261° |
| 2026-04-27 16:46 | 38.57075 | -8.89384 | 8329 ft | 334 kts | 262° |
| 2026-04-27 16:46 | 38.56719 | -8.92292 | 8013 ft | 325 kts | 261° |
| 2026-04-27 16:47 | 38.56375 | -8.95091 | 7832 ft | 312 kts | 261° |
| 2026-04-27 16:47 | 38.56044 | -8.97780 | 7581 ft | 302 kts | 261° |
| 2026-04-27 16:47 | 38.55721 | -9.00405 | 7228 ft | 297 kts | 261° |
| 2026-04-27 16:47 | 38.55403 | -9.02981 | 6738 ft | 298 kts | 261° |
| 2026-04-27 16:48 | 38.55079 | -9.05602 | 6311 ft | 296 kts | 261° |
| 2026-04-27 16:48 | 38.54758 | -9.08190 | 5884 ft | 294 kts | 261° |
| 2026-04-27 16:48 | 38.54439 | -9.10760 | 5528 ft | 289 kts | 261° |
| 2026-04-27 16:49 | 38.53830 | -9.15653 | 5073 ft | 268 kts | 261° |
| 2026-04-27 16:49 | 38.53567 | -9.17967 | 4853 ft | 258 kts | 267° |
| 2026-04-27 16:49 | 38.53884 | -9.20089 | 4743 ft | 238 kts | 302° |
| 2026-04-27 16:49 | 38.55033 | -9.21503 | 4597 ft | 230 kts | 332° |
| 2026-04-27 16:50 | 38.56494 | -9.22374 | 4405 ft | 232 kts | 339° |
| 2026-04-27 16:50 | 38.57992 | -9.23109 | 4100 ft | 228 kts | 346° |
| 2026-04-27 16:50 | 38.59547 | -9.23212 | 3830 ft | 221 kts | 7° |
| 2026-04-27 16:50 | 38.60997 | -9.22740 | 3564 ft | 210 kts | 20° |
| 2026-04-27 16:51 | 38.62301 | -9.22041 | 3306 ft | 201 kts | 22° |
| 2026-04-27 16:51 | 38.63564 | -9.21362 | 3049 ft | 192 kts | 21° |
| 2026-04-27 16:51 | 38.64777 | -9.20724 | 2800 ft | 185 kts | 20° |
| 2026-04-27 16:51 | 38.65960 | -9.20095 | 2571 ft | 185 kts | 20° |
| 2026-04-27 16:52 | 38.67136 | -9.19467 | 2342 ft | 178 kts | 19° |
| 2026-04-27 16:52 | 38.68253 | -9.18871 | 2118 ft | 170 kts | 20° |
| 2026-04-27 16:52 | 38.69317 | -9.18304 | 1874 ft | 161 kts | 19° |
| 2026-04-27 16:52 | 38.70335 | -9.17761 | 1691 ft | 157 kts | 18° |
| 2026-04-27 16:53 | 38.71338 | -9.17226 | 1484 ft | 156 kts | 19° |
| 2026-04-27 16:53 | 38.72328 | -9.16697 | 1280 ft | 157 kts | 17° |
| 2026-04-27 16:53 | 38.73332 | -9.16160 | 1076 ft | 155 kts | 18° |
| 2026-04-27 16:53 | 38.74327 | -9.15629 | 903 ft | 155 kts | 20° |
| 2026-04-27 16:54 | 38.75330 | -9.15086 | 728 ft | 161 kts | 21° |
| 2026-04-27 16:54 | 38.76356 | -9.14530 | 434 ft | 157 kts | 17° |
| 2026-04-27 16:54 | 38.77329 | -9.14017 | 364 ft | 142 kts | 16° |
| 2026-04-27 16:54 | 38.78107 | -9.13607 | 360 ft | 95 kts | 23° |
| 2026-04-27 16:55 | 38.78536 | -9.13366 | 356 ft | 32 kts | 45° |
| 2026-04-27 16:55 | 38.78520 | -9.13263 | 362 ft | 17 kts | 136° |
| 2026-04-27 16:55 | 38.78413 | -9.13222 | 358 ft | 15 kts | 184° |
| 2026-04-27 16:55 | 38.78329 | -9.13260 | 360 ft | 13 kts | 202° |
| 2026-04-27 16:56 | 38.78249 | -9.13302 | 359 ft | 12 kts | 202° |
| 2026-04-27 16:56 | 38.78170 | -9.13344 | 359 ft | 12 kts | 202° |
| 2026-04-27 16:56 | 38.78092 | -9.13385 | 360 ft | 12 kts | 202° |
| 2026-04-27 16:56 | 38.78013 | -9.13411 | 357 ft | 14 kts | 175° |
| 2026-04-27 16:57 | 38.77915 | -9.13388 | 359 ft | 14 kts | 169° |
| 2026-04-27 16:57 | 38.77819 | -9.13361 | 358 ft | 14 kts | 168° |
| 2026-04-27 16:57 | 38.77720 | -9.13335 | 357 ft | 14 kts | 168° |
| 2026-04-27 16:57 | 38.77621 | -9.13321 | 356 ft | 14 kts | 179° |
| 2026-04-27 16:58 | 38.77527 | -9.13304 | 361 ft | 14 kts | 168° |
| 2026-04-27 16:58 | 38.77432 | -9.13280 | 356 ft | 14 kts | 170° |
| 2026-04-27 16:58 | 38.77337 | -9.13260 | 357 ft | 13 kts | 171° |
| 2026-04-27 16:58 | 38.77258 | -9.13242 | 357 ft | 10 kts | 169° |
| 2026-04-27 16:59 | 38.77205 | -9.13225 | 363 ft | 4 kts | 154° |
| 2026-04-27 16:59 | 38.77202 | -9.13219 | 362 ft | 1 kts | 124° |
| 2026-04-27 16:59 | 38.77199 | -9.13202 | 362 ft | 3 kts | 94° |
| 2026-04-27 16:59 | 38.77203 | -9.13164 | 356 ft | 2 kts | 78° |
| 2026-04-27 17:00 | 38.77205 | -9.13150 | 363 ft | 1 kts | 78° |
| 2026-04-27 17:00 | 38.77207 | -9.13142 | 362 ft | 1 kts | 78° |
| 2026-04-27 17:00 | 38.77207 | -9.13140 | 362 ft | 0 kts | 78° |